Latest Weather Observations for Tarcoola

IDS60801

Issued at 8:02 am CDT Saturday 7 March 2015 (issued every 30 minutes, with the page automatically refreshed every 10 minutes)

About weather observations | Map of weather stations | Latest weather observations for SA | Other Formats
Station Details ID: 016098 Name: TARCOOLA AERO Lat: -30.71 Lon: 134.58 Height: 123.0 m
Data from the previous 72 hours. | See also: Recent months at Tarcoola
Date/Time
CDT
Temp
°C
App
Temp
°C
Dew
Point
Rel
Hum
%
Delta-T
°C
Wind Press
QNH
hPa
Press
MSL
hPa
Rain
since 9 am
mm
Dir
 
Spd
km/h
Gust
km/h
Spd
kts
Gust
kts
07/08:00am 17.0 15.7 11.1 68 3.2 S 9 15 5 8 1017.6 1017.1 0.0
07/07:30am 16.9 14.4 11.0 68 3.2 S 15 20 8 11 1017.2 1016.7 0.0
07/07:00am 17.1 14.9 10.9 67 3.3 S 13 17 7 9 1016.8 1016.3 0.0
07/06:30am 17.1 14.1 10.7 66 3.4 SSW 17 22 9 12 1016.8 1016.3 0.0
07/06:00am 17.2 14.1 10.3 64 3.7 SSW 17 22 9 12 1016.6 1016.1 0.0
07/05:30am 17.4 14.3 10.3 63 3.8 SSW 17 22 9 12 1016.2 1015.7 0.0
07/05:00am 17.5 14.3 10.1 62 3.9 SSW 17 22 9 12 1016.0 1015.5 0.0
07/04:30am 17.6 14.5 10.2 62 3.9 SSW 17 24 9 13 1016.1 1015.6 0.0
07/04:00am 17.7 14.9 10.1 61 4.1 SSW 15 20 8 11 1016.0 1015.5 0.0
07/03:30am 17.8 15.4 10.2 61 4.1 SSW 13 17 7 9 1016.4 1015.9 0.0
07/03:00am 18.0 15.6 10.1 60 4.2 SSW 13 19 7 10 1016.4 1015.9 0.0
07/02:30am 17.9 15.2 10.3 61 4.1 SSW 15 20 8 11 1016.5 1016.0 0.0
07/02:00am 18.1 14.6 10.2 60 4.2 SSW 19 24 10 13 1017.1 1016.6 0.0
07/01:30am 18.6 15.0 9.9 57 4.6 SSW 19 28 10 15 1017.6 1017.1 0.0
07/01:00am 19.0 14.8 9.8 55 4.9 S 22 30 12 16 1017.4 1016.9 0.0
07/12:30am 19.4 15.2 9.6 53 5.2 SSW 22 32 12 17 1017.3 1016.8 0.0
07/12:00am 19.7 14.2 9.3 51 5.5 SSW 28 35 15 19 1017.2 1016.7 0.0
 
Date/Time
CDT
Temp
°C
App
Temp
°C
Dew
Point
Rel
Hum
%
Delta-T
°C
Wind Press
QNH
hPa
Press
MSL
hPa
Rain
since 9 am
mm
Dir
 
Spd
km/h
Gust
km/h
Spd
kts
Gust
kts
06/11:30pm 20.7 15.9 9.0 47 6.2 S 24 32 13 17 1017.2 1016.7 0.0
06/11:00pm 21.4 16.9 8.7 44 6.7 SSW 22 39 12 21 1017.3 1016.8 0.0
06/10:30pm 22.1 17.1 7.9 40 7.4 SSW 24 37 13 20 1017.4 1016.9 0.0
06/10:00pm 22.5 17.5 7.9 39 7.7 SSW 24 35 13 19 1017.5 1017.0 0.0
06/09:30pm 23.2 17.9 6.9 35 8.5 SSW 24 33 13 18 1017.2 1016.7 0.0
06/09:00pm 24.7 19.0 5.0 28 10.0 SSW 24 39 13 21 1016.7 1016.2 0.0
06/08:30pm 26.4 20.4 -3.2 14 13.0 SSW 19 26 10 14 1016.3 1015.8 0.0
06/08:00pm 27.1 20.7 -1.7 15 13.1 SSW 22 32 12 17 1016.2 1015.7 0.0
06/07:30pm 27.8 22.2 -3.1 13 13.8 SSW 17 24 9 13 1015.9 1015.4 0.0
06/07:00pm 28.7 23.0 -3.5 12 14.4 S 17 24 9 13 1015.7 1015.1 0.0
06/06:30pm 28.7 22.1 -7.3 9 15.0 SSE 20 32 11 17 1015.7 1015.1 0.0
06/06:00pm 29.5 23.1 -5.3 10 15.2 S 20 30 11 16 1015.9 1015.4 0.0
06/05:30pm 29.6 24.0 -2.8 12 14.8 S 17 32 9 17 1015.7 1015.1 0.0
06/05:00pm 29.6 23.6 -2.8 12 14.8 SW 19 30 10 16 1016.0 1015.5 0.0
06/04:30pm 29.1 24.0 -5.6 10 15.0 S 13 22 7 12 1016.5 1016.0 0.0
06/04:00pm 29.4 23.1 -4.1 11 14.9 SW 20 30 11 16 1016.8 1016.3 0.0
06/03:30pm 28.2 23.4 -2.8 13 14.0 SE 13 20 7 11 1017.5 1017.0 0.0
06/03:00pm 27.9 22.8 -2.0 14 13.6 SSW 15 24 8 13 1018.1 1017.6 0.0
06/02:30pm 27.9 23.0 -3.0 13 13.8 SSW 13 20 7 11 1018.5 1018.0 0.0
06/02:00pm 26.6 22.2 0.4 18 12.4 S 13 20 7 11 1018.6 1018.1 0.0
06/01:30pm 25.6 21.0 1.7 21 11.4 SE 15 24 8 13 1019.3 1018.8 0.0
06/01:00pm 24.5 20.6 3.2 25 10.4 SSE 13 24 7 13 1019.7 1019.2 0.0
06/12:30pm 24.0 20.1 3.3 26 10.1 SE 13 20 7 11 1020.3 1019.8 0.0
06/12:00pm 23.1 18.9 3.6 28 9.5 SE 15 24 8 13 1020.6 1020.0 0.0
06/11:30am 21.7 18.0 4.7 33 8.4 SE 13 22 7 12 1021.1 1020.5 0.0
06/11:00am 20.7 16.7 5.1 36 7.7 SSE 15 20 8 11 1021.6 1021.0 0.0
06/10:30am 19.6 16.3 6.3 42 6.6 ESE 13 19 7 10 1021.6 1021.0 0.0
06/10:00am 18.8 14.9 7.3 47 5.9 SE 17 22 9 12 1021.2 1020.6 0.0
06/09:30am 17.6 13.2 7.6 52 5.1 SE 20 26 11 14 1021.3 1020.7 0.0
06/09:00am 16.1 12.4 7.8 58 4.2 SSE 17 20 9 11 1021.1 1020.5 0.0
06/08:30am 14.3 11.4 8.3 67 3.0 S 13 19 7 10 1021.2 1020.6 0.0
06/08:00am 13.4 10.9 8.3 71 2.6 S 11 15 6 8 1021.2 1020.6 0.0
06/07:30am 13.1 10.6 8.2 72 2.4 SSW 11 15 6 8 1020.9 1020.3 0.0
06/07:00am 13.6 10.8 8.4 71 2.6 SSW 13 17 7 9 1020.6 1020.0 0.0
06/06:30am 13.8 11.0 8.4 70 2.7 SSW 13 17 7 9 1020.5 1019.9 0.0
06/06:00am 14.3 11.2 8.7 69 2.8 SSW 15 17 8 9 1020.5 1019.9 0.0
06/05:30am 14.6 11.9 8.8 68 2.9 SW 13 17 7 9 1020.6 1020.0 0.0
06/05:00am 14.9 12.1 8.6 66 3.2 SSW 13 17 7 9 1020.3 1019.8 0.0
06/04:30am 15.3 12.6 8.8 65 3.3 SSW 13 20 7 11 1020.3 1019.8 0.0
06/04:00am 15.6 12.1 8.8 64 3.5 S 17 22 9 12 1020.2 1019.7 0.0
06/03:30am 16.0 12.2 9.0 63 3.6 S 19 26 10 14 1020.5 1019.9 0.0
06/03:00am 16.5 12.2 9.2 62 3.8 S 22 28 12 15 1020.8 1020.2 0.0
06/02:30am 16.8 12.5 9.2 61 4.0 SSW 22 28 12 15 1021.2 1020.6 0.0
06/02:00am 17.1 13.2 9.3 60 4.1 SSW 20 30 11 16 1021.5 1020.9 0.0
06/01:30am 17.4 13.2 9.6 60 4.1 S 22 30 12 16 1021.7 1021.1 0.0
06/01:00am 17.7 13.5 9.8 60 4.2 SSW 22 30 12 16 1021.9 1021.3 0.0
06/12:30am 18.1 13.5 9.5 57 4.5 SSW 24 32 13 17 1022.3 1021.7 0.0
06/12:00am 18.5 13.8 9.3 55 4.8 SSW 24 32 13 17 1022.3 1021.7 0.0
 
Date/Time
CDT
Temp
°C
App
Temp
°C
Dew
Point
Rel
Hum
%
Delta-T
°C
Wind Press
QNH
hPa
Press
MSL
hPa
Rain
since 9 am
mm
Dir
 
Spd
km/h
Gust
km/h
Spd
kts
Gust
kts
05/11:30pm 19.1 14.3 8.7 51 5.4 SSW 24 35 13 19 1022.7 1022.1 0.0
05/11:00pm 20.2 15.2 8.2 46 6.3 SSW 24 39 13 21 1022.6 1022.0 0.0
05/10:30pm 21.4 16.3 7.6 41 7.2 SSW 24 33 13 18 1022.3 1021.7 0.0
05/10:00pm 23.4 18.7 5.3 31 9.1 S 19 26 10 14 1021.8 1021.2 0.0
05/09:30pm 23.8 19.3 6.1 32 9.1 S 19 28 10 15 1021.4 1020.8 0.0
05/09:00pm 24.5 19.9 6.3 31 9.4 S 20 28 11 15 1020.9 1020.3 0.0
05/08:30pm 25.0 19.9 6.2 30 9.7 S 22 32 12 17 1020.1 1019.6 0.0
05/08:00pm 26.0 21.8 5.6 27 10.5 S 17 26 9 14 1019.6 1019.1 0.0
05/07:30pm 26.6 22.2 5.0 25 11.0 SSE 17 22 9 12 1019.3 1018.8 0.0
05/07:00pm 27.0 21.6 4.7 24 11.4 SSE 22 28 12 15 1019.4 1018.9 0.0
05/06:30pm 27.5 22.0 3.9 22 11.9 SSE 22 32 12 17 1019.2 1018.7 0.0
05/06:00pm 27.5 23.1 4.5 23 11.7 SSE 17 24 9 13 1019.2 1018.7 0.0
05/05:30pm 27.6 22.9 5.2 24 11.6 SSE 19 32 10 17 1019.5 1019.0 0.0
05/05:00pm 27.5 23.2 6.8 27 11.0 S 19 30 10 16 1019.6 1019.1 0.0
05/04:30pm 26.9 22.3 5.8 26 11.0 SSE 19 30 10 16 1019.8 1019.3 0.0
05/04:00pm 27.1 22.8 7.0 28 10.7 SSW 19 28 10 15 1020.1 1019.6 0.0
05/03:30pm 27.1 22.7 7.5 29 10.5 SSW 20 32 11 17 1020.5 1019.9 0.0
05/03:00pm 27.7 24.0 8.1 29 10.6 S 17 30 9 16 1020.7 1020.1 0.0
05/02:30pm 26.8 23.1 7.8 30 10.2 S 17 28 9 15 1021.0 1020.4 0.0
05/02:00pm 25.8 22.6 8.3 33 9.5 SSE 15 28 8 15 1021.3 1020.7 0.0
05/01:30pm 24.7 22.4 9.0 37 8.5 ESE 11 20 6 11 1021.9 1021.3 0.0
05/01:00pm 24.0 20.7 9.6 40 7.9 S 17 26 9 14 1022.4 1021.8 0.0
05/12:30pm 23.5 20.0 10.2 43 7.3 SE 19 28 10 15 1022.8 1022.2 0.0
05/12:00pm 22.8 19.2 9.9 44 7.0 SSE 19 32 10 17 1023.3 1022.8 0.0
05/11:30am 21.8 17.9 10.9 50 6.0 SSE 22 32 12 17 1023.7 1023.2 0.0
05/11:00am 21.2 18.4 11.2 53 5.6 SSE 17 26 9 14 1023.4 1022.9 0.0
05/10:30am 20.5 16.4 11.4 56 5.0 SSE 24 35 13 19 1023.5 1023.0 0.0
05/10:00am 19.5 16.5 11.8 61 4.3 SSE 19 24 10 13 1023.4 1022.9 0.0
05/09:30am 18.6 15.0 11.7 64 3.8 SSE 22 30 12 16 1023.0 1022.5 0.0
05/09:00am 18.2 16.0 12.0 67 3.4 SSE 15 20 8 11 1023.0 1022.5 0.0
05/08:30am 17.8 14.9 12.3 70 3.0 S 19 26 10 14 1022.6 1022.0 0.0
05/08:00am 17.4 15.0 12.5 73 2.7 S 17 22 9 12 1022.3 1021.7 0.0
05/07:30am 17.2 14.3 12.3 73 2.7 S 19 24 10 13 1022.5 1021.9 0.0
05/07:00am 17.0 15.3 12.3 74 2.6 S 13 17 7 9 1022.4 1021.8 0.0
05/06:30am 16.9 15.1 12.0 73 2.7 SSW 13 17 7 9 1022.6 1022.0 0.0
05/06:00am 16.7 14.8 11.8 73 2.7 SSW 13 19 7 10 1022.7 1022.1 0.0
05/05:30am 16.8 14.9 11.7 72 2.8 SSW 13 19 7 10 1022.3 1021.7 0.0
05/05:00am 17.0 14.7 11.7 71 2.9 S 15 22 8 12 1022.1 1021.5 0.0
05/04:30am 17.0 13.9 11.5 70 3.0 S 19 24 10 13 1021.9 1021.3 0.0
05/04:00am 16.9 13.7 11.4 70 3.0 SSW 19 24 10 13 1022.1 1021.5 0.0
05/03:30am 17.0 14.6 11.3 69 3.1 SSW 15 20 8 11 1022.3 1021.7 0.0
05/03:00am 17.1 13.3 11.2 68 3.2 S 22 30 12 16 1022.2 1021.6 0.0
05/02:30am 17.4 13.6 11.0 66 3.5 S 22 32 12 17 1022.4 1021.8 0.0
05/02:00am 17.6 13.3 10.7 64 3.7 SSW 24 33 13 18 1022.4 1021.8 0.0
05/01:30am 17.6 12.9 10.5 63 3.8 SSW 26 37 14 20 1022.6 1022.0 0.0
05/01:00am 17.8 11.9 10.4 62 4.0 SSW 32 43 17 23 1022.2 1021.6 0.0
05/12:30am 18.0 12.5 10.4 61 4.1 SSW 30 43 16 23 1022.3 1021.7 0.0
05/12:00am 18.5 12.8 9.8 57 4.6 SSW 30 44 16 24 1021.8 1021.2 0.0
 
Date/Time
CDT
Temp
°C
App
Temp
°C
Dew
Point
Rel
Hum
%
Delta-T
°C
Wind Press
QNH
hPa
Press
MSL
hPa
Rain
since 9 am
mm
Dir
 
Spd
km/h
Gust
km/h
Spd
kts
Gust
kts
04/11:30pm 19.2 13.3 9.1 52 5.3 SSW 30 41 16 22 1021.8 1021.2 0.0
04/11:00pm 20.0 13.5 8.0 46 6.2 SSW 32 41 17 22 1021.6 1021.0 0.0
04/10:30pm 20.7 15.1 8.7 46 6.3 SSW 28 39 15 21 1021.3 1020.7 0.0
04/10:00pm 21.5 15.9 8.7 44 6.8 SSW 28 35 15 19 1021.0 1020.4 0.0
04/09:30pm 22.4 17.4 8.1 40 7.5 SSW 24 32 13 17 1020.7 1020.1 0.0
04/09:00pm 23.3 17.9 7.8 37 8.2 SSW 26 35 14 19 1020.1 1019.6 0.0
04/08:30pm 24.3 17.5 7.9 35 8.7 SSW 33 44 18 24 1019.5 1019.0 0.0
04/08:00pm 25.9 20.5 6.5 29 10.2 SSW 24 37 13 20 1019.0 1018.5 0.0
04/07:30pm 26.8 22.0 7.3 29 10.4 SSW 22 32 12 17 1018.8 1018.3 0.0
04/07:00pm 27.2 20.6 4.3 23 11.6 SSW 28 37 15 20 1018.4 1017.9 0.0
04/06:30pm 27.8 21.9 6.0 25 11.4 SSW 26 37 14 20 1018.1 1017.6 0.0
04/06:00pm 28.1 23.2 6.8 26 11.3 SSW 22 28 12 15 1018.2 1017.7 0.0
04/05:30pm 28.0 23.7 7.8 28 10.9 SW 20 30 11 16 1018.1 1017.6 0.0
04/05:00pm 28.1 23.9 8.4 29 10.8 SSW 20 30 11 16 1018.3 1017.8 0.0
04/04:30pm 27.6 23.0 8.0 29 10.6 SSW 22 30 12 16 1018.2 1017.7 0.0
04/04:00pm 28.1 23.9 8.4 29 10.8 SSW 20 30 11 16 1018.2 1017.7 0.0
04/03:30pm 27.6 23.5 8.5 30 10.4 S 20 35 11 19 1018.4 1017.9 0.0
04/03:00pm 28.1 24.1 8.9 30 10.6 S 20 32 11 17 1018.4 1017.9 0.0
04/02:30pm 28.2 24.1 8.5 29 10.8 SSW 20 32 11 17 1018.6 1018.1 0.0
04/02:00pm 28.1 24.6 8.9 30 10.6 S 17 30 9 16 1018.8 1018.3 0.0
04/01:30pm 27.7 24.6 9.0 31 10.3 S 15 26 8 14 1019.0 1018.5 0.0
04/01:00pm 26.9 24.0 9.7 34 9.6 SSE 15 22 8 12 1019.2 1018.7 0.0
04/12:30pm 25.7 23.0 10.3 38 8.6 SSE 15 26 8 14 1019.6 1019.1 0.0
04/12:00pm 25.5 22.3 10.1 38 8.6 SSE 17 30 9 16 1020.0 1019.5 0.0
04/11:30am 24.0 20.8 9.9 41 7.7 SSE 17 24 9 13 1020.5 1019.9 0.0
04/11:00am 22.3 19.3 10.5 47 6.5 SSE 17 26 9 14 1020.1 1019.6 0.0
04/10:30am 21.4 18.5 11.1 52 5.7 S 17 24 9 13 1020.1 1019.6 0.0
04/10:00am 20.6 17.0 10.7 53 5.4 S 20 22 11 12 1020.0 1019.5 0.0
04/09:30am 20.7 17.3 10.5 52 5.6 S 19 26 10 14 1019.6 1019.1 0.0
04/09:00am 20.7 18.0 10.5 52 5.6 S 15 20 8 11 1019.3 1018.8 0.0
04/08:30am 19.5 16.4 10.2 55 5.0 S 17 22 9 12 1019.1 1018.6 0.0

Other Formats:

Comma delimited format used in spreadsheet applications
http://www.bom.gov.au/fwo/IDS60801/IDS60801.94655.axf

JavaScript Object Notation format (JSON) in row-major order
http://www.bom.gov.au/fwo/IDS60801/IDS60801.94655.json